sensor_id;sensor_type;location;lat;lon;timestamp;temperature;humidity
40738;DHT22;54759;48.094;-1.628;2023-06-04T00:01:57;24.70;47.50
40738;DHT22;54759;48.094;-1.628;2023-06-04T00:04:58;24.60;47.50
40738;DHT22;54759;48.094;-1.628;2023-06-04T00:08:01;26.00;48.80
40738;DHT22;54759;48.094;-1.628;2023-06-04T00:11:05;23.30;48.40
40738;DHT22;54759;48.094;-1.628;2023-06-04T00:14:08;22.10;47.30
40738;DHT22;54759;48.094;-1.628;2023-06-04T00:17:10;24.70;47.90
40738;DHT22;54759;48.094;-1.628;2023-06-04T00:20:15;24.90;47.10
40738;DHT22;54759;48.094;-1.628;2023-06-04T00:23:17;24.80;47.20
40738;DHT22;54759;48.094;-1.628;2023-06-04T00:26:19;24.90;48.00
40738;DHT22;54759;48.094;-1.628;2023-06-04T00:29:22;24.60;47.50
40738;DHT22;54759;48.094;-1.628;2023-06-04T00:32:25;25.40;48.40
40738;DHT22;54759;48.094;-1.628;2023-06-04T00:35:27;25.90;48.60
40738;DHT22;54759;48.094;-1.628;2023-06-04T00:38:30;24.30;47.90
40738;DHT22;54759;48.094;-1.628;2023-06-04T00:41:32;24.70;48.20
40738;DHT22;54759;48.094;-1.628;2023-06-04T00:44:33;23.50;47.30
40738;DHT22;54759;48.094;-1.628;2023-06-04T00:47:35;25.20;48.20
40738;DHT22;54759;48.094;-1.628;2023-06-04T00:50:37;24.50;47.70
40738;DHT22;54759;48.094;-1.628;2023-06-04T00:53:40;24.60;47.10
40738;DHT22;54759;48.094;-1.628;2023-06-04T00:56:43;24.70;48.00
40738;DHT22;54759;48.094;-1.628;2023-06-04T00:59:45;24.60;46.90
40738;DHT22;54759;48.094;-1.628;2023-06-04T01:02:49;24.50;47.90
40738;DHT22;54759;48.094;-1.628;2023-06-04T01:05:59;24.70;46.90
40738;DHT22;54759;48.094;-1.628;2023-06-04T01:09:05;23.50;46.30
40738;DHT22;54759;48.094;-1.628;2023-06-04T01:12:07;26.70;48.50
40738;DHT22;54759;48.094;-1.628;2023-06-04T01:15:11;23.90;46.60
40738;DHT22;54759;48.094;-1.628;2023-06-04T01:18:15;24.30;47.20
40738;DHT22;54759;48.094;-1.628;2023-06-04T01:21:30;22.90;46.00
40738;DHT22;54759;48.094;-1.628;2023-06-04T01:24:35;24.20;47.60
40738;DHT22;54759;48.094;-1.628;2023-06-04T01:27:42;22.10;45.40
40738;DHT22;54759;48.094;-1.628;2023-06-04T01:30:45;24.40;47.50
40738;DHT22;54759;48.094;-1.628;2023-06-04T01:33:50;24.70;46.80
40738;DHT22;54759;48.094;-1.628;2023-06-04T01:36:53;24.70;47.20
40738;DHT22;54759;48.094;-1.628;2023-06-04T01:39:55;25.20;48.30
40738;DHT22;54759;48.094;-1.628;2023-06-04T01:42:57;24.00;47.40
40738;DHT22;54759;48.094;-1.628;2023-06-04T01:45:59;24.50;46.90
40738;DHT22;54759;48.094;-1.628;2023-06-04T01:49:01;26.90;48.90
40738;DHT22;54759;48.094;-1.628;2023-06-04T01:52:03;24.40;47.40
40738;DHT22;54759;48.094;-1.628;2023-06-04T01:55:06;24.10;46.60
40738;DHT22;54759;48.094;-1.628;2023-06-04T01:58:08;24.50;46.60
40738;DHT22;54759;48.094;-1.628;2023-06-04T02:01:10;23.70;46.30
40738;DHT22;54759;48.094;-1.628;2023-06-04T02:04:12;24.10;47.30
40738;DHT22;54759;48.094;-1.628;2023-06-04T02:07:14;24.20;46.70
40738;DHT22;54759;48.094;-1.628;2023-06-04T02:10:20;23.40;46.70
40738;DHT22;54759;48.094;-1.628;2023-06-04T02:13:21;24.30;46.70
40738;DHT22;54759;48.094;-1.628;2023-06-04T02:16:23;24.00;46.80
40738;DHT22;54759;48.094;-1.628;2023-06-04T02:19:24;24.50;47.10
40738;DHT22;54759;48.094;-1.628;2023-06-04T02:22:27;23.80;46.50
40738;DHT22;54759;48.094;-1.628;2023-06-04T02:25:31;24.00;46.90
40738;DHT22;54759;48.094;-1.628;2023-06-04T02:28:33;24.20;47.20
40738;DHT22;54759;48.094;-1.628;2023-06-04T02:31:34;24.40;47.10
40738;DHT22;54759;48.094;-1.628;2023-06-04T02:34:36;22.50;45.90
40738;DHT22;54759;48.094;-1.628;2023-06-04T02:37:38;21.40;44.70
40738;DHT22;54759;48.094;-1.628;2023-06-04T02:40:42;24.70;47.30
40738;DHT22;54759;48.094;-1.628;2023-06-04T02:43:44;24.00;46.10
40738;DHT22;54759;48.094;-1.628;2023-06-04T02:46:45;24.00;46.80
40738;DHT22;54759;48.094;-1.628;2023-06-04T02:49:47;25.10;47.60
40738;DHT22;54759;48.094;-1.628;2023-06-04T02:52:49;24.80;47.40
40738;DHT22;54759;48.094;-1.628;2023-06-04T02:55:51;25.50;47.20
40738;DHT22;54759;48.094;-1.628;2023-06-04T02:58:54;24.00;46.20
40738;DHT22;54759;48.094;-1.628;2023-06-04T03:01:58;22.90;45.30
40738;DHT22;54759;48.094;-1.628;2023-06-04T03:05:01;24.10;46.80
40738;DHT22;54759;48.094;-1.628;2023-06-04T03:08:03;22.60;45.50
40738;DHT22;54759;48.094;-1.628;2023-06-04T03:11:06;24.30;46.50
40738;DHT22;54759;48.094;-1.628;2023-06-04T03:14:08;23.70;46.00
40738;DHT22;54759;48.094;-1.628;2023-06-04T03:17:11;23.80;46.10
40738;DHT22;54759;48.094;-1.628;2023-06-04T03:20:12;24.20;46.50
40738;DHT22;54759;48.094;-1.628;2023-06-04T03:23:14;24.20;46.50
40738;DHT22;54759;48.094;-1.628;2023-06-04T03:26:16;26.30;47.60
40738;DHT22;54759;48.094;-1.628;2023-06-04T03:29:18;25.90;47.30
40738;DHT22;54759;48.094;-1.628;2023-06-04T03:32:19;24.10;46.80
40738;DHT22;54759;48.094;-1.628;2023-06-04T03:35:22;24.30;46.50
40738;DHT22;54759;48.094;-1.628;2023-06-04T03:38:24;24.70;46.30
40738;DHT22;54759;48.094;-1.628;2023-06-04T03:41:26;24.20;46.40
40738;DHT22;54759;48.094;-1.628;2023-06-04T03:44:28;24.20;46.40
40738;DHT22;54759;48.094;-1.628;2023-06-04T03:47:30;24.10;46.10
40738;DHT22;54759;48.094;-1.628;2023-06-04T03:50:33;22.60;45.60
40738;DHT22;54759;48.094;-1.628;2023-06-04T03:53:37;24.20;46.10
40738;DHT22;54759;48.094;-1.628;2023-06-04T03:56:39;23.80;46.00
40738;DHT22;54759;48.094;-1.628;2023-06-04T03:59:43;24.20;46.10
40738;DHT22;54759;48.094;-1.628;2023-06-04T04:02:48;23.90;45.70
40738;DHT22;54759;48.094;-1.628;2023-06-04T04:05:57;21.80;44.60
40738;DHT22;54759;48.094;-1.628;2023-06-04T04:08:59;23.40;45.70
40738;DHT22;54759;48.094;-1.628;2023-06-04T04:12:01;23.70;45.80
40738;DHT22;54759;48.094;-1.628;2023-06-04T04:15:03;23.10;45.60
40738;DHT22;54759;48.094;-1.628;2023-06-04T04:18:05;24.00;45.50
40738;DHT22;54759;48.094;-1.628;2023-06-04T04:21:09;22.40;44.80
40738;DHT22;54759;48.094;-1.628;2023-06-04T04:24:22;23.60;45.50
40738;DHT22;54759;48.094;-1.628;2023-06-04T04:27:24;23.70;45.30
40738;DHT22;54759;48.094;-1.628;2023-06-04T04:30:27;24.70;46.20
40738;DHT22;54759;48.094;-1.628;2023-06-04T04:33:29;23.80;45.70
40738;DHT22;54759;48.094;-1.628;2023-06-04T04:36:35;25.80;46.60
40738;DHT22;54759;48.094;-1.628;2023-06-04T04:39:37;24.50;46.20
40738;DHT22;54759;48.094;-1.628;2023-06-04T04:42:40;23.70;46.00
40738;DHT22;54759;48.094;-1.628;2023-06-04T04:45:44;23.70;45.40
40738;DHT22;54759;48.094;-1.628;2023-06-04T04:48:46;23.90;45.70
40738;DHT22;54759;48.094;-1.628;2023-06-04T04:51:48;23.60;45.90
40738;DHT22;54759;48.094;-1.628;2023-06-04T04:54:51;24.00;45.40
40738;DHT22;54759;48.094;-1.628;2023-06-04T04:57:59;24.70;46.00
40738;DHT22;54759;48.094;-1.628;2023-06-04T05:01:01;23.50;46.20
40738;DHT22;54759;48.094;-1.628;2023-06-04T05:04:03;23.60;46.10
40738;DHT22;54759;48.094;-1.628;2023-06-04T05:07:10;23.70;45.50
40738;DHT22;54759;48.094;-1.628;2023-06-04T05:10:12;23.40;45.60
40738;DHT22;54759;48.094;-1.628;2023-06-04T05:13:15;23.60;45.50
40738;DHT22;54759;48.094;-1.628;2023-06-04T05:16:22;23.70;46.00
40738;DHT22;54759;48.094;-1.628;2023-06-04T05:19:25;23.80;45.90
40738;DHT22;54759;48.094;-1.628;2023-06-04T05:22:27;23.90;45.70
40738;DHT22;54759;48.094;-1.628;2023-06-04T05:25:32;23.70;45.60
40738;DHT22;54759;48.094;-1.628;2023-06-04T05:28:36;23.40;45.80
40738;DHT22;54759;48.094;-1.628;2023-06-04T05:31:40;23.70;46.00
40738;DHT22;54759;48.094;-1.628;2023-06-04T05:34:44;22.40;45.30
40738;DHT22;54759;48.094;-1.628;2023-06-04T05:37:48;23.40;45.60
40738;DHT22;54759;48.094;-1.628;2023-06-04T05:40:57;23.70;45.50
40738;DHT22;54759;48.094;-1.628;2023-06-04T05:44:04;23.70;45.50
40738;DHT22;54759;48.094;-1.628;2023-06-04T05:47:06;23.70;46.10
40738;DHT22;54759;48.094;-1.628;2023-06-04T05:50:09;22.10;45.00
40738;DHT22;54759;48.094;-1.628;2023-06-04T05:53:11;23.80;45.00
40738;DHT22;54759;48.094;-1.628;2023-06-04T05:56:13;23.60;45.50
40738;DHT22;54759;48.094;-1.628;2023-06-04T05:59:16;23.50;45.90
40738;DHT22;54759;48.094;-1.628;2023-06-04T06:02:18;22.90;45.80
40738;DHT22;54759;48.094;-1.628;2023-06-04T06:05:20;23.60;45.80
40738;DHT22;54759;48.094;-1.628;2023-06-04T06:08:22;22.00;44.60
40738;DHT22;54759;48.094;-1.628;2023-06-04T06:11:24;23.50;45.40
40738;DHT22;54759;48.094;-1.628;2023-06-04T06:14:29;23.50;46.00
40738;DHT22;54759;48.094;-1.628;2023-06-04T06:17:32;22.10;44.70
40738;DHT22;54759;48.094;-1.628;2023-06-04T06:20:34;23.40;45.20
40738;DHT22;54759;48.094;-1.628;2023-06-04T06:23:36;22.80;45.00
40738;DHT22;54759;48.094;-1.628;2023-06-04T06:26:39;23.30;45.20
40738;DHT22;54759;48.094;-1.628;2023-06-04T06:29:44;23.40;45.70
40738;DHT22;54759;48.094;-1.628;2023-06-04T06:32:45;23.40;45.80
40738;DHT22;54759;48.094;-1.628;2023-06-04T06:35:49;23.60;45.90
40738;DHT22;54759;48.094;-1.628;2023-06-04T06:38:51;23.60;45.70
40738;DHT22;54759;48.094;-1.628;2023-06-04T06:41:53;23.40;44.90
40738;DHT22;54759;48.094;-1.628;2023-06-04T06:45:01;23.30;44.90
40738;DHT22;54759;48.094;-1.628;2023-06-04T06:48:03;23.50;45.10
40738;DHT22;54759;48.094;-1.628;2023-06-04T06:51:05;23.70;44.60
40738;DHT22;54759;48.094;-1.628;2023-06-04T06:54:08;23.80;45.50
40738;DHT22;54759;48.094;-1.628;2023-06-04T06:57:10;23.70;44.90
40738;DHT22;54759;48.094;-1.628;2023-06-04T07:00:13;23.30;45.10
40738;DHT22;54759;48.094;-1.628;2023-06-04T07:03:14;23.60;44.50
40738;DHT22;54759;48.094;-1.628;2023-06-04T07:06:19;23.70;45.30
40738;DHT22;54759;48.094;-1.628;2023-06-04T07:09:25;23.90;44.90
40738;DHT22;54759;48.094;-1.628;2023-06-04T07:12:28;23.90;44.40
40738;DHT22;54759;48.094;-1.628;2023-06-04T07:15:30;26.90;47.30
40738;DHT22;54759;48.094;-1.628;2023-06-04T07:18:32;23.20;44.70
40738;DHT22;54759;48.094;-1.628;2023-06-04T07:21:34;23.70;44.70
40738;DHT22;54759;48.094;-1.628;2023-06-04T07:24:36;22.00;43.90
40738;DHT22;54759;48.094;-1.628;2023-06-04T07:27:38;23.60;44.90
40738;DHT22;54759;48.094;-1.628;2023-06-04T07:30:41;24.00;44.90
40738;DHT22;54759;48.094;-1.628;2023-06-04T07:33:43;21.90;43.60
40738;DHT22;54759;48.094;-1.628;2023-06-04T07:36:45;23.50;44.50
40738;DHT22;54759;48.094;-1.628;2023-06-04T07:39:49;23.20;44.50
40738;DHT22;54759;48.094;-1.628;2023-06-04T07:42:50;23.60;44.10
40738;DHT22;54759;48.094;-1.628;2023-06-04T07:45:54;23.30;44.60
40738;DHT22;54759;48.094;-1.628;2023-06-04T07:48:56;24.00;42.90
40738;DHT22;54759;48.094;-1.628;2023-06-04T07:51:58;24.50;45.00
40738;DHT22;54759;48.094;-1.628;2023-06-04T07:55:00;25.60;46.10
40738;DHT22;54759;48.094;-1.628;2023-06-04T07:58:01;25.50;45.30
40738;DHT22;54759;48.094;-1.628;2023-06-04T08:01:07;23.80;44.60
40738;DHT22;54759;48.094;-1.628;2023-06-04T08:04:09;23.80;45.50
40738;DHT22;54759;48.094;-1.628;2023-06-04T08:07:11;23.80;44.70
40738;DHT22;54759;48.094;-1.628;2023-06-04T08:10:14;23.40;44.60
40738;DHT22;54759;48.094;-1.628;2023-06-04T08:13:16;22.70;43.60
40738;DHT22;54759;48.094;-1.628;2023-06-04T08:16:18;23.60;44.80
40738;DHT22;54759;48.094;-1.628;2023-06-04T08:19:20;23.80;44.20
40738;DHT22;54759;48.094;-1.628;2023-06-04T08:22:21;23.80;45.00
40738;DHT22;54759;48.094;-1.628;2023-06-04T08:25:23;23.80;44.60
40738;DHT22;54759;48.094;-1.628;2023-06-04T08:28:25;23.90;44.30
40738;DHT22;54759;48.094;-1.628;2023-06-04T08:31:28;23.90;44.20
40738;DHT22;54759;48.094;-1.628;2023-06-04T08:34:30;23.90;44.50
40738;DHT22;54759;48.094;-1.628;2023-06-04T08:37:31;23.80;44.40
40738;DHT22;54759;48.094;-1.628;2023-06-04T08:40:33;23.90;44.80
40738;DHT22;54759;48.094;-1.628;2023-06-04T08:43:36;23.90;43.90
40738;DHT22;54759;48.094;-1.628;2023-06-04T08:46:39;23.50;43.60
40738;DHT22;54759;48.094;-1.628;2023-06-04T08:49:44;24.00;43.90
40738;DHT22;54759;48.094;-1.628;2023-06-04T08:52:49;23.80;43.70
40738;DHT22;54759;48.094;-1.628;2023-06-04T08:55:54;26.10;45.00
40738;DHT22;54759;48.094;-1.628;2023-06-04T08:58:59;24.00;43.90
40738;DHT22;54759;48.094;-1.628;2023-06-04T09:02:04;24.00;43.60
40738;DHT22;54759;48.094;-1.628;2023-06-04T09:05:06;24.80;45.10
40738;DHT22;54759;48.094;-1.628;2023-06-04T09:08:14;24.00;43.90
40738;DHT22;54759;48.094;-1.628;2023-06-04T09:11:19;24.10;43.70
40738;DHT22;54759;48.094;-1.628;2023-06-04T09:14:23;24.10;43.90
40738;DHT22;54759;48.094;-1.628;2023-06-04T09:17:25;24.00;43.90
40738;DHT22;54759;48.094;-1.628;2023-06-04T09:20:29;25.00;45.10
40738;DHT22;54759;48.094;-1.628;2023-06-04T09:23:30;24.00;44.60
40738;DHT22;54759;48.094;-1.628;2023-06-04T09:26:33;24.20;44.60
40738;DHT22;54759;48.094;-1.628;2023-06-04T09:29:34;24.00;44.90
40738;DHT22;54759;48.094;-1.628;2023-06-04T09:32:37;24.30;45.00
40738;DHT22;54759;48.094;-1.628;2023-06-04T09:35:39;23.90;44.90
40738;DHT22;54759;48.094;-1.628;2023-06-04T09:38:41;24.00;44.70
40738;DHT22;54759;48.094;-1.628;2023-06-04T09:41:57;23.80;44.30
40738;DHT22;54759;48.094;-1.628;2023-06-04T09:45:01;24.00;44.50
40738;DHT22;54759;48.094;-1.628;2023-06-04T09:48:04;23.00;44.50
40738;DHT22;54759;48.094;-1.628;2023-06-04T09:51:12;24.00;45.00
40738;DHT22;54759;48.094;-1.628;2023-06-04T09:54:14;24.00;44.50
40738;DHT22;54759;48.094;-1.628;2023-06-04T09:57:17;24.60;45.30
40738;DHT22;54759;48.094;-1.628;2023-06-04T10:00:20;24.10;44.50
40738;DHT22;54759;48.094;-1.628;2023-06-04T10:03:30;23.30;44.10
40738;DHT22;54759;48.094;-1.628;2023-06-04T10:06:38;26.20;46.30
40738;DHT22;54759;48.094;-1.628;2023-06-04T10:09:43;23.50;43.40
40738;DHT22;54759;48.094;-1.628;2023-06-04T10:12:49;24.00;45.20
40738;DHT22;54759;48.094;-1.628;2023-06-04T10:15:51;24.10;44.80
40738;DHT22;54759;48.094;-1.628;2023-06-04T10:18:54;23.10;44.00
40738;DHT22;54759;48.094;-1.628;2023-06-04T10:21:56;24.40;44.80
40738;DHT22;54759;48.094;-1.628;2023-06-04T10:24:58;26.40;46.50
40738;DHT22;54759;48.094;-1.628;2023-06-04T10:28:00;24.50;45.70
40738;DHT22;54759;48.094;-1.628;2023-06-04T10:31:02;24.20;44.80
40738;DHT22;54759;48.094;-1.628;2023-06-04T10:34:05;24.60;45.40
40738;DHT22;54759;48.094;-1.628;2023-06-04T10:37:06;24.30;45.30
40738;DHT22;54759;48.094;-1.628;2023-06-04T10:40:19;22.70;43.90
40738;DHT22;54759;48.094;-1.628;2023-06-04T10:43:31;24.30;44.40
40738;DHT22;54759;48.094;-1.628;2023-06-04T10:46:38;24.60;44.90
40738;DHT22;54759;48.094;-1.628;2023-06-04T10:49:42;24.40;44.40
40738;DHT22;54759;48.094;-1.628;2023-06-04T10:52:51;23.40;44.40
40738;DHT22;54759;48.094;-1.628;2023-06-04T10:55:53;22.40;43.40
40738;DHT22;54759;48.094;-1.628;2023-06-04T10:58:55;24.30;45.30
40738;DHT22;54759;48.094;-1.628;2023-06-04T11:02:05;24.30;44.90
40738;DHT22;54759;48.094;-1.628;2023-06-04T11:05:08;24.70;45.10
40738;DHT22;54759;48.094;-1.628;2023-06-04T11:08:11;23.80;45.00
40738;DHT22;54759;48.094;-1.628;2023-06-04T11:11:22;26.30;45.70
40738;DHT22;54759;48.094;-1.628;2023-06-04T11:14:24;24.50;45.10
40738;DHT22;54759;48.094;-1.628;2023-06-04T11:17:26;24.70;44.70
40738;DHT22;54759;48.094;-1.628;2023-06-04T11:20:28;24.50;45.60
40738;DHT22;54759;48.094;-1.628;2023-06-04T11:23:33;24.40;45.80
40738;DHT22;54759;48.094;-1.628;2023-06-04T11:26:36;24.90;45.00
40738;DHT22;54759;48.094;-1.628;2023-06-04T11:29:43;24.90;44.70
40738;DHT22;54759;48.094;-1.628;2023-06-04T11:32:50;24.70;44.50
40738;DHT22;54759;48.094;-1.628;2023-06-04T11:35:52;24.50;44.90
40738;DHT22;54759;48.094;-1.628;2023-06-04T11:38:56;22.50;43.70
40738;DHT22;54759;48.094;-1.628;2023-06-04T11:41:57;24.50;44.30
40738;DHT22;54759;48.094;-1.628;2023-06-04T11:45:00;23.30;44.70
40738;DHT22;54759;48.094;-1.628;2023-06-04T11:48:04;24.30;45.00
40738;DHT22;54759;48.094;-1.628;2023-06-04T11:51:07;24.80;44.60
40738;DHT22;54759;48.094;-1.628;2023-06-04T11:54:10;24.70;44.90
40738;DHT22;54759;48.094;-1.628;2023-06-04T11:57:12;24.40;45.10
40738;DHT22;54759;48.094;-1.628;2023-06-04T12:00:14;24.90;45.00
40738;DHT22;54759;48.094;-1.628;2023-06-04T12:03:18;24.10;44.30
40738;DHT22;54759;48.094;-1.628;2023-06-04T12:06:21;24.70;45.30
40738;DHT22;54759;48.094;-1.628;2023-06-04T12:09:28;23.20;44.80
40738;DHT22;54759;48.094;-1.628;2023-06-04T12:12:29;23.50;43.70
40738;DHT22;54759;48.094;-1.628;2023-06-04T12:15:31;23.00;44.60
40738;DHT22;54759;48.094;-1.628;2023-06-04T12:18:32;26.80;46.30
40738;DHT22;54759;48.094;-1.628;2023-06-04T12:21:38;24.80;45.30
40738;DHT22;54759;48.094;-1.628;2023-06-04T12:24:47;24.90;44.50
40738;DHT22;54759;48.094;-1.628;2023-06-04T12:27:49;23.20;43.70
40738;DHT22;54759;48.094;-1.628;2023-06-04T12:30:52;25.00;45.20
40738;DHT22;54759;48.094;-1.628;2023-06-04T12:33:53;25.00;45.40
40738;DHT22;54759;48.094;-1.628;2023-06-04T12:36:55;24.50;45.30
40738;DHT22;54759;48.094;-1.628;2023-06-04T12:39:57;24.50;45.00
40738;DHT22;54759;48.094;-1.628;2023-06-04T12:42:59;24.70;45.00
40738;DHT22;54759;48.094;-1.628;2023-06-04T12:46:00;23.40;44.40
40738;DHT22;54759;48.094;-1.628;2023-06-04T12:49:02;25.00;45.30
40738;DHT22;54759;48.094;-1.628;2023-06-04T12:52:04;24.40;45.10
40738;DHT22;54759;48.094;-1.628;2023-06-04T12:55:07;26.30;45.60
40738;DHT22;54759;48.094;-1.628;2023-06-04T12:58:09;25.10;44.30
40738;DHT22;54759;48.094;-1.628;2023-06-04T13:01:10;24.90;44.90
40738;DHT22;54759;48.094;-1.628;2023-06-04T13:04:12;24.90;45.10
40738;DHT22;54759;48.094;-1.628;2023-06-04T13:07:14;25.10;45.10
40738;DHT22;54759;48.094;-1.628;2023-06-04T13:10:17;25.40;46.00
40738;DHT22;54759;48.094;-1.628;2023-06-04T13:13:20;24.90;44.50
40738;DHT22;54759;48.094;-1.628;2023-06-04T13:16:21;23.00;44.00
40738;DHT22;54759;48.094;-1.628;2023-06-04T13:19:23;26.00;45.50
40738;DHT22;54759;48.094;-1.628;2023-06-04T13:22:28;24.50;45.00
40738;DHT22;54759;48.094;-1.628;2023-06-04T13:25:30;25.00;44.60
40738;DHT22;54759;48.094;-1.628;2023-06-04T13:28:33;25.30;44.80
40738;DHT22;54759;48.094;-1.628;2023-06-04T13:31:35;23.60;44.40
40738;DHT22;54759;48.094;-1.628;2023-06-04T13:34:36;25.30;45.60
40738;DHT22;54759;48.094;-1.628;2023-06-04T13:37:38;24.80;45.20
40738;DHT22;54759;48.094;-1.628;2023-06-04T13:40:40;25.10;45.40
40738;DHT22;54759;48.094;-1.628;2023-06-04T13:43:41;25.10;45.30
40738;DHT22;54759;48.094;-1.628;2023-06-04T13:46:45;23.90;44.80
40738;DHT22;54759;48.094;-1.628;2023-06-04T13:49:46;24.40;44.60
40738;DHT22;54759;48.094;-1.628;2023-06-04T13:52:48;24.80;45.20
40738;DHT22;54759;48.094;-1.628;2023-06-04T13:55:50;24.60;45.20
40738;DHT22;54759;48.094;-1.628;2023-06-04T13:58:58;25.40;45.50
40738;DHT22;54759;48.094;-1.628;2023-06-04T14:02:00;25.20;45.50
40738;DHT22;54759;48.094;-1.628;2023-06-04T14:05:01;24.90;45.10
40738;DHT22;54759;48.094;-1.628;2023-06-04T14:08:04;26.50;46.10
40738;DHT22;54759;48.094;-1.628;2023-06-04T14:11:06;25.20;45.10
40738;DHT22;54759;48.094;-1.628;2023-06-04T14:14:08;25.10;44.80
40738;DHT22;54759;48.094;-1.628;2023-06-04T14:17:11;27.30;46.20
40738;DHT22;54759;48.094;-1.628;2023-06-04T14:20:15;25.20;44.70
40738;DHT22;54759;48.094;-1.628;2023-06-04T14:23:20;24.50;44.10
40738;DHT22;54759;48.094;-1.628;2023-06-04T14:26:22;25.30;44.30
40738;DHT22;54759;48.094;-1.628;2023-06-04T14:29:23;25.10;44.30
40738;DHT22;54759;48.094;-1.628;2023-06-04T14:32:25;24.70;44.10
40738;DHT22;54759;48.094;-1.628;2023-06-04T14:35:26;25.50;44.50
40738;DHT22;54759;48.094;-1.628;2023-06-04T14:38:29;25.70;44.60
40738;DHT22;54759;48.094;-1.628;2023-06-04T14:41:30;24.30;43.90
40738;DHT22;54759;48.094;-1.628;2023-06-04T14:44:32;25.30;44.10
40738;DHT22;54759;48.094;-1.628;2023-06-04T14:47:33;25.20;44.50
40738;DHT22;54759;48.094;-1.628;2023-06-04T14:50:35;23.90;43.10
40738;DHT22;54759;48.094;-1.628;2023-06-04T14:53:37;25.90;43.90
40738;DHT22;54759;48.094;-1.628;2023-06-04T14:56:40;25.60;43.30
40738;DHT22;54759;48.094;-1.628;2023-06-04T14:59:42;25.50;43.60
40738;DHT22;54759;48.094;-1.628;2023-06-04T15:02:47;25.00;42.80
40738;DHT22;54759;48.094;-1.628;2023-06-04T15:05:48;24.10;42.80
40738;DHT22;54759;48.094;-1.628;2023-06-04T15:08:51;24.40;43.30
40738;DHT22;54759;48.094;-1.628;2023-06-04T15:11:52;24.80;43.10
40738;DHT22;54759;48.094;-1.628;2023-06-04T15:14:54;25.30;43.30
40738;DHT22;54759;48.094;-1.628;2023-06-04T15:17:55;25.10;42.90
40738;DHT22;54759;48.094;-1.628;2023-06-04T15:20:57;26.10;43.50
40738;DHT22;54759;48.094;-1.628;2023-06-04T15:23:59;25.00;42.90
40738;DHT22;54759;48.094;-1.628;2023-06-04T15:27:01;25.00;42.50
40738;DHT22;54759;48.094;-1.628;2023-06-04T15:30:06;24.60;41.90
40738;DHT22;54759;48.094;-1.628;2023-06-04T15:33:08;25.30;42.10
40738;DHT22;54759;48.094;-1.628;2023-06-04T15:36:09;24.50;42.20
40738;DHT22;54759;48.094;-1.628;2023-06-04T15:39:14;25.10;42.10
40738;DHT22;54759;48.094;-1.628;2023-06-04T15:42:18;25.30;42.00
40738;DHT22;54759;48.094;-1.628;2023-06-04T15:45:20;25.20;42.60
40738;DHT22;54759;48.094;-1.628;2023-06-04T15:48:25;25.50;42.50
40738;DHT22;54759;48.094;-1.628;2023-06-04T15:51:30;25.40;42.20
40738;DHT22;54759;48.094;-1.628;2023-06-04T15:54:32;25.50;41.70
40738;DHT22;54759;48.094;-1.628;2023-06-04T15:57:47;24.70;41.60
40738;DHT22;54759;48.094;-1.628;2023-06-04T16:00:48;25.30;42.10
40738;DHT22;54759;48.094;-1.628;2023-06-04T16:03:53;26.50;43.00
40738;DHT22;54759;48.094;-1.628;2023-06-04T16:06:55;25.70;41.20
40738;DHT22;54759;48.094;-1.628;2023-06-04T16:09:57;25.40;41.70
40738;DHT22;54759;48.094;-1.628;2023-06-04T16:12:59;25.50;42.20
40738;DHT22;54759;48.094;-1.628;2023-06-04T16:16:00;25.50;42.10
40738;DHT22;54759;48.094;-1.628;2023-06-04T16:19:05;25.60;41.80
40738;DHT22;54759;48.094;-1.628;2023-06-04T16:22:06;27.10;42.50
40738;DHT22;54759;48.094;-1.628;2023-06-04T16:25:09;25.50;41.90
40738;DHT22;54759;48.094;-1.628;2023-06-04T16:28:10;25.70;41.30
40738;DHT22;54759;48.094;-1.628;2023-06-04T16:31:12;24.20;40.70
40738;DHT22;54759;48.094;-1.628;2023-06-04T16:34:14;25.30;40.30
40738;DHT22;54759;48.094;-1.628;2023-06-04T16:37:16;23.60;40.30
40738;DHT22;54759;48.094;-1.628;2023-06-04T16:40:19;26.00;40.50
40738;DHT22;54759;48.094;-1.628;2023-06-04T16:43:21;26.50;41.00
40738;DHT22;54759;48.094;-1.628;2023-06-04T16:46:23;26.00;39.80
40738;DHT22;54759;48.094;-1.628;2023-06-04T16:49:24;26.10;39.90
40738;DHT22;54759;48.094;-1.628;2023-06-04T16:52:26;26.20;39.90
40738;DHT22;54759;48.094;-1.628;2023-06-04T16:55:30;26.10;39.90
40738;DHT22;54759;48.094;-1.628;2023-06-04T16:58:45;29.00;40.90
40738;DHT22;54759;48.094;-1.628;2023-06-04T17:01:47;26.20;39.50
40738;DHT22;54759;48.094;-1.628;2023-06-04T17:04:49;26.10;38.80
40738;DHT22;54759;48.094;-1.628;2023-06-04T17:07:52;27.70;40.10
40738;DHT22;54759;48.094;-1.628;2023-06-04T17:10:54;26.50;38.60
40738;DHT22;54759;48.094;-1.628;2023-06-04T17:13:56;26.20;38.50
40738;DHT22;54759;48.094;-1.628;2023-06-04T17:16:57;26.10;38.50
40738;DHT22;54759;48.094;-1.628;2023-06-04T17:20:01;25.30;38.20
40738;DHT22;54759;48.094;-1.628;2023-06-04T17:23:18;25.60;37.50
40738;DHT22;54759;48.094;-1.628;2023-06-04T17:26:20;26.00;37.80
40738;DHT22;54759;48.094;-1.628;2023-06-04T17:29:23;28.10;40.10
40738;DHT22;54759;48.094;-1.628;2023-06-04T17:32:25;27.70;39.90
40738;DHT22;54759;48.094;-1.628;2023-06-04T17:35:26;26.90;39.20
40738;DHT22;54759;48.094;-1.628;2023-06-04T17:38:28;26.20;38.50
40738;DHT22;54759;48.094;-1.628;2023-06-04T17:41:30;25.50;38.80
40738;DHT22;54759;48.094;-1.628;2023-06-04T17:44:32;26.30;38.40
40738;DHT22;54759;48.094;-1.628;2023-06-04T17:47:33;26.40;38.60
40738;DHT22;54759;48.094;-1.628;2023-06-04T17:50:36;26.50;38.40
40738;DHT22;54759;48.094;-1.628;2023-06-04T17:53:38;26.70;38.70
40738;DHT22;54759;48.094;-1.628;2023-06-04T17:56:41;27.00;38.50
40738;DHT22;54759;48.094;-1.628;2023-06-04T17:59:46;25.60;37.60
40738;DHT22;54759;48.094;-1.628;2023-06-04T18:02:48;26.60;38.60
40738;DHT22;54759;48.094;-1.628;2023-06-04T18:05:52;26.00;38.10
40738;DHT22;54759;48.094;-1.628;2023-06-04T18:08:53;25.60;37.60
40738;DHT22;54759;48.094;-1.628;2023-06-04T18:11:56;26.50;38.40
40738;DHT22;54759;48.094;-1.628;2023-06-04T18:14:57;26.50;38.20
40738;DHT22;54759;48.094;-1.628;2023-06-04T18:17:59;25.80;38.00
40738;DHT22;54759;48.094;-1.628;2023-06-04T18:21:01;27.20;38.80
40738;DHT22;54759;48.094;-1.628;2023-06-04T18:24:03;26.70;39.30
40738;DHT22;54759;48.094;-1.628;2023-06-04T18:27:08;26.90;39.00
40738;DHT22;54759;48.094;-1.628;2023-06-04T18:30:10;26.50;38.60
40738;DHT22;54759;48.094;-1.628;2023-06-04T18:33:11;26.70;38.50
40738;DHT22;54759;48.094;-1.628;2023-06-04T18:36:13;25.60;38.10
40738;DHT22;54759;48.094;-1.628;2023-06-04T18:39:15;26.10;38.70
40738;DHT22;54759;48.094;-1.628;2023-06-04T18:42:17;26.80;39.20
40738;DHT22;54759;48.094;-1.628;2023-06-04T18:45:32;27.10;39.40
40738;DHT22;54759;48.094;-1.628;2023-06-04T18:48:33;27.90;40.70
40738;DHT22;54759;48.094;-1.628;2023-06-04T18:51:35;26.40;40.30
40738;DHT22;54759;48.094;-1.628;2023-06-04T18:54:37;27.20;40.70
40738;DHT22;54759;48.094;-1.628;2023-06-04T18:57:39;24.50;39.90